createdAt,value
2018-09-18T00:01:23.136Z,15.30
2018-09-18T00:03:53.802Z,15.30
2018-09-18T00:06:24.471Z,15.30
2018-09-18T00:08:55.153Z,15.20
2018-09-18T00:11:25.785Z,15.20
2018-09-18T00:13:56.677Z,15.20
2018-09-18T00:16:27.367Z,15.20
2018-09-18T00:18:58.006Z,15.20
2018-09-18T00:21:28.663Z,15.20
2018-09-18T00:23:59.347Z,15.10
2018-09-18T00:26:30.040Z,15.10
2018-09-18T00:29:00.748Z,15.10
2018-09-18T00:31:31.407Z,15.10
2018-09-18T00:34:02.079Z,15.10
2018-09-18T00:36:32.724Z,15.00
2018-09-18T00:39:04.117Z,15.00
2018-09-18T00:41:34.767Z,15.00
2018-09-18T00:44:05.439Z,15.00
2018-09-18T00:46:36.084Z,15.00
2018-09-18T00:49:06.763Z,15.00
2018-09-18T00:51:37.403Z,15.00
2018-09-18T00:54:08.107Z,15.00
2018-09-18T00:56:38.766Z,15.00
2018-09-18T00:59:09.480Z,14.90
2018-09-18T01:01:40.116Z,14.90
2018-09-18T01:04:10.799Z,14.90
2018-09-18T01:06:41.663Z,14.80
2018-09-18T01:09:12.385Z,14.80
2018-09-18T01:11:43.043Z,14.80
2018-09-18T01:14:13.725Z,14.80
2018-09-18T01:16:44.391Z,14.70
2018-09-18T01:19:15.041Z,14.70
2018-09-18T01:21:45.832Z,14.70
2018-09-18T01:24:16.527Z,14.70
2018-09-18T01:26:47.185Z,14.70
2018-09-18T01:29:17.864Z,14.70
2018-09-18T01:31:48.515Z,14.60
2018-09-18T01:34:19.188Z,14.60
2018-09-18T01:36:49.841Z,14.60
2018-09-18T01:39:20.513Z,14.60
2018-09-18T01:41:51.151Z,14.60
2018-09-18T01:44:21.823Z,14.60
2018-09-18T01:46:52.508Z,14.60
2018-09-18T01:49:23.181Z,14.50
2018-09-18T01:51:53.858Z,14.50
2018-09-18T01:54:24.528Z,14.50
2018-09-18T01:56:55.203Z,14.50
2018-09-18T01:59:25.920Z,14.40
2018-09-18T02:01:56.596Z,14.40
2018-09-18T02:04:27.270Z,14.40
2018-09-18T02:06:57.947Z,14.40
2018-09-18T02:09:28.616Z,14.40
2018-09-18T02:11:59.292Z,14.40
2018-09-18T02:14:29.944Z,14.40
2018-09-18T02:17:00.626Z,14.40
2018-09-18T02:19:31.274Z,14.40
2018-09-18T02:22:02.142Z,14.40
2018-09-18T02:24:33.022Z,14.40
2018-09-18T02:27:03.708Z,14.30
2018-09-18T02:29:34.363Z,14.30
2018-09-18T02:32:05.389Z,14.30
2018-09-18T02:34:36.343Z,14.30
2018-09-18T02:37:06.976Z,14.30
2018-09-18T02:39:37.644Z,14.30
2018-09-18T02:42:08.291Z,14.20
2018-09-18T02:44:38.974Z,14.20
2018-09-18T02:47:09.640Z,14.20
2018-09-18T02:49:40.310Z,14.20
2018-09-18T02:52:10.947Z,14.20
2018-09-18T02:54:41.881Z,14.10
2018-09-18T02:57:12.514Z,14.10
2018-09-18T02:59:43.195Z,14.10
2018-09-18T03:02:13.841Z,14.10
2018-09-18T03:04:44.511Z,14.10
2018-09-18T03:07:15.224Z,14.10
2018-09-18T03:09:45.894Z,14.10
2018-09-18T03:12:16.556Z,14.20
2018-09-18T03:14:47.263Z,14.20
2018-09-18T03:17:18.131Z,14.20
2018-09-18T03:19:48.816Z,14.20
2018-09-18T03:22:19.677Z,14.20
2018-09-18T03:24:50.339Z,14.10
2018-09-18T03:27:21.102Z,14.10
2018-09-18T03:29:51.992Z,14.10
2018-09-18T03:32:22.639Z,14.10
2018-09-18T03:34:53.368Z,14.10
2018-09-18T03:37:24.003Z,14.00
2018-09-18T03:39:54.689Z,13.90
2018-09-18T03:42:25.513Z,13.90
2018-09-18T03:44:56.195Z,13.90
2018-09-18T03:47:26.845Z,13.90
2018-09-18T03:49:57.530Z,13.90
2018-09-18T03:52:28.221Z,13.90
2018-09-18T03:54:58.892Z,13.90
2018-09-18T03:57:29.539Z,13.90
2018-09-18T04:00:00.213Z,13.90
2018-09-18T04:02:30.859Z,13.90
2018-09-18T04:05:01.546Z,13.80
2018-09-18T04:07:32.459Z,13.80
2018-09-18T04:10:03.480Z,13.80
2018-09-18T04:12:34.159Z,13.80
2018-09-18T04:15:05.231Z,13.80
2018-09-18T04:17:35.948Z,13.80
2018-09-18T04:20:07.116Z,13.80
2018-09-18T04:22:37.816Z,13.80
2018-09-18T04:25:08.651Z,13.80
2018-09-18T04:27:39.729Z,13.80
2018-09-18T04:30:10.388Z,13.80
2018-09-18T04:32:41.069Z,13.90
2018-09-18T04:35:11.724Z,13.90
2018-09-18T04:37:42.388Z,13.90
2018-09-18T04:40:13.036Z,13.90
2018-09-18T04:42:43.720Z,13.90
2018-09-18T04:45:14.414Z,13.90
2018-09-18T04:47:45.097Z,13.90
2018-09-18T04:50:15.740Z,13.90
2018-09-18T04:52:46.416Z,13.90
2018-09-18T04:55:17.601Z,13.90
2018-09-18T04:57:48.376Z,13.90
2018-09-18T05:00:19.033Z,13.90
2018-09-18T05:02:49.715Z,13.90
2018-09-18T05:05:20.424Z,13.90
2018-09-18T05:07:52.844Z,13.90
2018-09-18T05:10:23.835Z,13.90
2018-09-18T05:12:54.616Z,13.90
2018-09-18T05:15:25.286Z,13.90
2018-09-18T05:17:55.956Z,13.90
2018-09-18T05:20:26.636Z,13.90
2018-09-18T05:22:57.319Z,13.90
2018-09-18T05:25:27.975Z,13.90
2018-09-18T05:27:58.848Z,13.90
2018-09-18T05:30:29.512Z,13.90
2018-09-18T05:33:00.315Z,13.90
2018-09-18T05:35:30.980Z,13.90
2018-09-18T05:38:01.661Z,13.90
2018-09-18T05:40:32.328Z,13.90
2018-09-18T05:43:02.981Z,13.90
2018-09-18T05:45:33.654Z,14.00
2018-09-18T05:48:04.377Z,14.00
2018-09-18T05:50:35.208Z,14.00
2018-09-18T05:53:06.640Z,14.00
2018-09-18T05:55:37.288Z,14.10
2018-09-18T05:58:07.956Z,14.10
2018-09-18T06:00:38.994Z,14.10
2018-09-18T06:03:10.013Z,14.10
2018-09-18T06:05:40.663Z,14.20
2018-09-18T06:08:11.364Z,14.20
2018-09-18T06:10:42.016Z,14.30
2018-09-18T06:13:12.700Z,14.30
2018-09-18T06:15:43.343Z,14.40
2018-09-18T06:18:14.051Z,14.40
2018-09-18T06:20:44.991Z,14.50
2018-09-18T06:23:15.707Z,14.50
2018-09-18T06:25:52.983Z,14.60
2018-09-18T06:28:23.628Z,14.60
2018-09-18T06:30:54.347Z,14.70
2018-09-18T06:33:25.044Z,14.70
2018-09-18T06:35:55.740Z,14.80
2018-09-18T06:38:26.603Z,14.90
2018-09-18T06:40:57.295Z,15.00
2018-09-18T06:43:27.985Z,15.10
2018-09-18T06:45:58.660Z,15.20
2018-09-18T06:48:29.331Z,15.30
2018-09-18T06:50:59.985Z,15.40
2018-09-18T06:53:30.676Z,15.50
2018-09-18T06:56:01.321Z,15.60
2018-09-18T06:58:32.041Z,15.70
2018-09-18T07:01:02.686Z,15.80
2018-09-18T07:03:33.352Z,15.90
2018-09-18T07:06:03.992Z,16.00
2018-09-18T07:08:35.044Z,16.10
2018-09-18T07:11:06.199Z,16.20
2018-09-18T07:13:37.660Z,16.30
2018-09-18T07:16:08.571Z,16.40
2018-09-18T07:18:39.251Z,16.60
2018-09-18T07:21:09.929Z,16.70
2018-09-18T07:23:41.166Z,16.80
2018-09-18T07:26:11.804Z,16.90
2018-09-18T07:28:42.471Z,17.10
2018-09-18T07:31:13.139Z,17.20
2018-09-18T07:33:43.874Z,17.30
2018-09-18T07:36:14.775Z,17.40
2018-09-18T07:38:45.745Z,17.60
2018-09-18T07:41:16.415Z,17.70
2018-09-18T07:43:47.084Z,17.90
2018-09-18T07:46:17.788Z,18.00
2018-09-18T07:48:48.499Z,18.10
2018-09-18T07:51:19.585Z,18.30
2018-09-18T07:53:50.234Z,18.50
2018-09-18T07:56:20.937Z,18.70
2018-09-18T07:58:52.782Z,18.80
2018-09-18T08:01:24.284Z,19.00
2018-09-18T08:03:54.520Z,19.10
2018-09-18T08:06:25.801Z,19.20
2018-09-18T08:08:56.742Z,19.30
2018-09-18T08:11:27.379Z,19.40
2018-09-18T08:13:58.048Z,19.50
2018-09-18T08:16:28.896Z,19.70
2018-09-18T08:18:59.682Z,19.80
2018-09-18T08:21:30.452Z,20.00
2018-09-18T08:24:01.137Z,20.10
2018-09-18T08:26:31.802Z,20.30
2018-09-18T08:29:02.476Z,20.40
2018-09-18T08:31:33.145Z,20.60
2018-09-18T08:34:03.835Z,20.70
2018-09-18T08:36:34.196Z,20.90
2018-09-18T08:39:07.983Z,21.00
2018-09-18T08:41:39.007Z,21.10
2018-09-18T08:44:09.541Z,21.30
2018-09-18T08:46:39.948Z,21.40
2018-09-18T08:49:10.535Z,21.60
2018-09-18T08:51:40.982Z,21.80
2018-09-18T08:54:11.510Z,21.90
2018-09-18T08:56:42.240Z,22.00
2018-09-18T08:59:12.824Z,22.10
2018-09-18T09:01:43.188Z,22.20
2018-09-18T09:04:13.755Z,22.30
2018-09-18T09:06:44.371Z,22.40
2018-09-18T09:09:15.565Z,22.50
2018-09-18T09:11:46.304Z,22.60
2018-09-18T09:14:16.900Z,22.70
2018-09-18T09:16:47.480Z,22.80
2018-09-18T09:19:17.867Z,23.00
2018-09-18T09:21:48.565Z,23.10
2018-09-18T09:24:19.076Z,23.20
2018-09-18T09:26:49.533Z,23.40
2018-09-18T09:29:20.051Z,23.50
2018-09-18T09:31:50.630Z,23.60
2018-09-18T09:34:20.996Z,23.60
2018-09-18T09:36:51.434Z,23.80
2018-09-18T09:39:21.988Z,23.90
2018-09-18T09:41:52.356Z,24.00
2018-09-18T09:44:23.116Z,24.10
2018-09-18T09:46:53.543Z,24.10
2018-09-18T09:49:24.322Z,24.20
2018-09-18T09:51:54.688Z,24.40
2018-09-18T09:54:25.104Z,24.50
2018-09-18T09:56:55.747Z,24.70
2018-09-18T09:59:26.292Z,24.80
2018-09-18T10:02:02.124Z,24.90
2018-09-18T10:04:32.530Z,25.00
2018-09-18T10:07:02.902Z,25.10
2018-09-18T10:09:33.295Z,25.20
2018-09-18T10:12:03.733Z,25.30
2018-09-18T10:14:34.092Z,25.30
2018-09-18T10:17:04.689Z,25.40
2018-09-18T10:19:35.076Z,25.40
2018-09-18T10:22:05.812Z,25.50
2018-09-18T10:24:36.325Z,25.60
2018-09-18T10:27:07.123Z,25.70
2018-09-18T10:29:37.602Z,25.90
2018-09-18T10:32:08.009Z,26.00
2018-09-18T10:34:38.576Z,26.10
2018-09-18T10:37:09.149Z,26.30
2018-09-18T10:39:39.704Z,26.30
2018-09-18T10:42:10.163Z,26.40
2018-09-18T10:44:40.683Z,26.50
2018-09-18T10:47:11.294Z,26.50
2018-09-18T10:49:41.835Z,26.60
2018-09-18T10:52:12.284Z,26.70
2018-09-18T10:54:42.641Z,26.80
2018-09-18T10:57:13.026Z,26.90
2018-09-18T10:59:43.465Z,27.10
2018-09-18T11:02:14.280Z,27.10
2018-09-18T11:04:44.813Z,27.20
2018-09-18T11:07:15.411Z,27.40
2018-09-18T11:09:46.027Z,27.50
2018-09-18T11:12:16.536Z,27.60
2018-09-18T11:14:47.125Z,27.70
2018-09-18T11:17:17.669Z,27.80
2018-09-18T11:19:48.267Z,27.90
2018-09-18T11:22:18.933Z,28.00
2018-09-18T11:24:49.617Z,28.10
2018-09-18T11:27:20.208Z,28.30
2018-09-18T11:29:50.789Z,28.40
2018-09-18T11:32:21.172Z,28.40
2018-09-18T11:34:51.753Z,28.50
2018-09-18T11:37:22.156Z,28.60
2018-09-18T11:39:52.548Z,28.60
2018-09-18T11:42:22.939Z,28.70
2018-09-18T11:44:53.332Z,28.70
2018-09-18T11:47:23.755Z,28.80
2018-09-18T11:49:54.134Z,28.90
2018-09-18T11:52:24.528Z,28.90
2018-09-18T11:54:54.901Z,29.00
2018-09-18T11:57:25.288Z,29.10
2018-09-18T11:59:55.674Z,29.20
2018-09-18T12:02:26.071Z,29.30
2018-09-18T12:04:56.473Z,29.40
2018-09-18T12:07:27.110Z,29.40
2018-09-18T12:09:57.706Z,29.50
2018-09-18T12:12:28.096Z,29.60
2018-09-18T12:14:58.462Z,29.70
2018-09-18T12:17:28.931Z,29.80
2018-09-18T12:19:59.435Z,29.90
2018-09-18T12:22:29.938Z,29.80
2018-09-18T12:25:00.435Z,29.70
2018-09-18T12:27:30.793Z,29.70
2018-09-18T12:30:01.376Z,29.60
2018-09-18T12:32:31.739Z,29.70
2018-09-18T12:35:02.177Z,29.70
2018-09-18T12:37:34.059Z,29.70
2018-09-18T12:40:06.187Z,29.70
2018-09-18T12:42:38.003Z,29.70
2018-09-18T12:45:08.962Z,29.80
2018-09-18T12:47:39.346Z,29.90
2018-09-18T12:50:10.067Z,30.00
2018-09-18T12:52:40.580Z,30.00
2018-09-18T12:55:10.954Z,30.10
2018-09-18T12:57:41.362Z,30.20
2018-09-18T13:00:11.967Z,30.30
2018-09-18T13:02:42.532Z,30.40
2018-09-18T13:05:12.892Z,30.40
2018-09-18T13:07:43.279Z,30.40
2018-09-18T13:10:13.671Z,30.40
2018-09-18T13:12:44.123Z,30.30
2018-09-18T13:15:14.701Z,30.40
2018-09-18T13:17:45.302Z,30.40
2018-09-18T13:20:15.876Z,30.50
2018-09-18T13:22:46.309Z,30.50
2018-09-18T13:25:16.868Z,30.60
2018-09-18T13:27:47.339Z,30.60
2018-09-18T13:30:17.865Z,30.70
2018-09-18T13:32:48.654Z,30.80
2018-09-18T13:35:19.133Z,30.90
2018-09-18T13:37:49.721Z,30.90
2018-09-18T13:40:20.108Z,30.90
2018-09-18T13:42:50.496Z,30.90
2018-09-18T13:45:20.887Z,30.80
2018-09-18T13:47:51.240Z,30.70
2018-09-18T13:50:21.682Z,30.70
2018-09-18T13:52:52.582Z,30.70
2018-09-18T13:55:23.391Z,30.60
2018-09-18T13:57:53.979Z,30.60
2018-09-18T14:00:24.352Z,30.70
2018-09-18T14:02:54.804Z,30.70
2018-09-18T14:05:25.372Z,30.60
2018-09-18T14:07:55.757Z,30.70
2018-09-18T14:10:26.140Z,30.80
2018-09-18T14:12:56.555Z,30.80
2018-09-18T14:15:26.919Z,30.80
2018-09-18T14:17:57.552Z,30.80
2018-09-18T14:20:27.912Z,30.70
2018-09-18T14:22:58.308Z,30.70
2018-09-18T14:25:28.716Z,30.70
2018-09-18T14:27:59.296Z,30.80
2018-09-18T14:30:29.658Z,30.80
2018-09-18T14:33:00.036Z,30.80
2018-09-18T14:35:30.408Z,30.70
2018-09-18T14:38:00.823Z,30.60
2018-09-18T14:40:31.434Z,30.50
2018-09-18T14:43:01.951Z,30.40
2018-09-18T14:45:32.311Z,30.30
2018-09-18T14:48:02.676Z,30.20
2018-09-18T14:50:33.064Z,30.10
2018-09-18T14:53:03.502Z,30.10
2018-09-18T14:55:33.910Z,30.10
2018-09-18T14:58:04.340Z,30.00
2018-09-18T15:00:34.715Z,30.00
2018-09-18T15:03:05.088Z,30.00
2018-09-18T15:05:35.444Z,30.00
2018-09-18T15:08:05.865Z,29.90
2018-09-18T15:10:36.215Z,29.80
2018-09-18T15:13:06.788Z,29.80
2018-09-18T15:15:37.245Z,29.70
2018-09-18T15:18:07.759Z,29.70
2018-09-18T15:20:38.152Z,29.50
2018-09-18T15:23:08.510Z,29.40
2018-09-18T15:25:38.907Z,29.30
2018-09-18T15:28:09.274Z,29.30
2018-09-18T15:30:39.652Z,29.30
2018-09-18T15:33:10.008Z,29.30
2018-09-18T15:35:40.386Z,29.40
2018-09-18T15:38:10.938Z,29.40
2018-09-18T15:40:41.492Z,29.40
2018-09-18T15:43:11.928Z,29.30
2018-09-18T15:45:42.537Z,29.30
2018-09-18T15:48:13.015Z,29.30
2018-09-18T15:50:43.364Z,29.30
2018-09-18T15:53:13.833Z,29.30
2018-09-18T15:55:44.188Z,29.20
2018-09-18T15:58:14.569Z,29.10
2018-09-18T16:00:44.947Z,29.10
2018-09-18T16:03:15.523Z,29.00
2018-09-18T16:05:45.911Z,29.00
2018-09-18T16:08:16.280Z,28.90
2018-09-18T16:10:46.662Z,28.80
2018-09-18T16:13:17.064Z,28.80
2018-09-18T16:15:47.470Z,28.80
2018-09-18T16:18:17.964Z,28.90
2018-09-18T16:20:48.312Z,28.80
2018-09-18T16:23:18.785Z,28.80
2018-09-18T16:25:49.812Z,28.80
2018-09-18T16:28:20.286Z,28.80
2018-09-18T16:30:50.776Z,28.70
2018-09-18T16:33:21.395Z,28.60
2018-09-18T16:35:51.889Z,28.50
2018-09-18T16:38:26.189Z,28.50
2018-09-18T16:40:59.467Z,28.40
2018-09-18T16:43:38.544Z,28.20
2018-09-18T16:46:10.471Z,28.10
2018-09-18T16:48:46.806Z,28.00
2018-09-18T16:51:19.984Z,28.00
2018-09-18T16:53:52.185Z,27.80
2018-09-18T16:56:23.903Z,27.70
2018-09-18T16:58:54.585Z,27.60
2018-09-18T17:01:24.977Z,27.50
2018-09-18T17:03:55.388Z,27.40
2018-09-18T17:06:25.792Z,27.30
2018-09-18T17:08:56.346Z,27.20
2018-09-18T17:11:26.732Z,27.10
2018-09-18T17:13:57.136Z,27.10
2018-09-18T17:16:27.503Z,27.00
2018-09-18T17:18:58.081Z,26.90
2018-09-18T17:21:28.427Z,26.90
2018-09-18T17:23:58.842Z,26.80
2018-09-18T17:26:29.227Z,26.80
2018-09-18T17:28:59.725Z,26.70
2018-09-18T17:31:30.184Z,26.60
2018-09-18T17:34:00.564Z,26.60
2018-09-18T17:36:30.920Z,26.50
2018-09-18T17:39:01.856Z,26.40
2018-09-18T17:41:32.252Z,26.40
2018-09-18T17:44:03.180Z,26.30
2018-09-18T17:46:33.739Z,26.30
2018-09-18T17:49:04.303Z,26.20
2018-09-18T17:51:34.662Z,26.20
2018-09-18T17:54:05.080Z,26.10
2018-09-18T17:56:35.471Z,26.10
2018-09-18T17:59:05.842Z,26.00
2018-09-18T18:01:36.211Z,26.00
2018-09-18T18:04:06.591Z,26.00
2018-09-18T18:06:36.941Z,26.00
2018-09-18T18:09:08.979Z,26.00
2018-09-18T18:11:39.789Z,26.00
2018-09-18T18:14:10.326Z,25.90
2018-09-18T18:16:40.683Z,25.90
2018-09-18T18:19:11.081Z,25.90
2018-09-18T18:21:41.779Z,25.90
2018-09-18T18:24:12.223Z,25.90
2018-09-18T18:26:42.776Z,25.80
2018-09-18T18:29:13.715Z,25.80
2018-09-18T18:31:44.114Z,25.70
2018-09-18T18:34:14.481Z,25.70
2018-09-18T18:36:45.096Z,25.70
2018-09-18T18:39:15.456Z,25.70
2018-09-18T18:41:45.846Z,25.70
2018-09-18T18:44:16.396Z,25.70
2018-09-18T18:46:46.796Z,25.60
2018-09-18T18:49:17.152Z,25.60
2018-09-18T18:51:47.536Z,25.50
2018-09-18T18:54:17.926Z,25.50
2018-09-18T18:56:48.300Z,25.40
2018-09-18T18:59:19.213Z,25.40
2018-09-18T19:01:49.580Z,25.30
2018-09-18T19:04:19.969Z,25.30
2018-09-18T19:06:50.622Z,25.20
2018-09-18T19:09:21.174Z,25.20
2018-09-18T19:11:51.542Z,25.10
2018-09-18T19:14:21.924Z,25.00
2018-09-18T19:16:52.284Z,25.00
2018-09-18T19:19:22.684Z,24.90
2018-09-18T19:21:53.099Z,24.90
2018-09-18T19:24:23.454Z,24.80
2018-09-18T19:26:53.867Z,24.80
2018-09-18T19:29:24.451Z,24.70
2018-09-18T19:31:54.848Z,24.70
2018-09-18T19:34:25.236Z,24.60
2018-09-18T19:36:55.624Z,24.60
2018-09-18T19:39:26.379Z,24.50
2018-09-18T19:41:56.799Z,24.50
2018-09-18T19:44:27.152Z,24.40
2018-09-18T19:46:57.844Z,24.40
2018-09-18T19:49:28.194Z,24.30
2018-09-18T19:51:58.576Z,24.30
2018-09-18T19:54:29.169Z,24.20
2018-09-18T19:56:59.531Z,24.20
2018-09-18T19:59:29.924Z,24.10
2018-09-18T20:02:00.315Z,24.00
2018-09-18T20:04:30.873Z,24.00
2018-09-18T20:07:01.260Z,23.90
2018-09-18T20:09:31.655Z,23.80
2018-09-18T20:12:02.202Z,23.70
2018-09-18T20:14:32.629Z,23.70
2018-09-18T20:17:02.998Z,23.60
2018-09-18T20:19:33.395Z,23.50
2018-09-18T20:22:03.802Z,23.40
2018-09-18T20:24:34.152Z,23.40
2018-09-18T20:30:09.628Z,23.20
2018-09-18T20:32:40.000Z,23.10
2018-09-18T20:35:10.425Z,23.00
2018-09-18T20:37:40.789Z,22.90
2018-09-18T20:40:11.187Z,22.80
2018-09-18T20:42:41.562Z,22.70
2018-09-18T20:45:11.982Z,22.60
2018-09-18T20:47:42.546Z,22.60
2018-09-18T20:50:12.921Z,22.50
2018-09-18T20:52:43.340Z,22.50
2018-09-18T20:55:13.741Z,22.30
2018-09-18T20:57:44.132Z,22.30
2018-09-18T21:00:14.558Z,22.20
2018-09-18T21:02:45.291Z,22.10
2018-09-18T21:05:15.914Z,22.10
2018-09-18T21:07:46.298Z,22.00
2018-09-18T21:10:21.400Z,21.90
2018-09-18T21:12:56.358Z,21.80
2018-09-18T21:15:31.219Z,21.80
2018-09-18T21:18:01.643Z,21.70
2018-09-18T21:20:32.222Z,21.60
2018-09-18T21:23:02.636Z,21.60
2018-09-18T21:25:57.036Z,21.50
2018-09-18T21:28:27.472Z,21.50
2018-09-18T21:30:57.903Z,21.40
2018-09-18T21:33:28.453Z,21.30
2018-09-18T21:35:59.242Z,21.20
2018-09-18T21:38:30.105Z,21.20
2018-09-18T21:41:00.612Z,21.10
2018-09-18T21:43:31.812Z,21.10
2018-09-18T21:46:02.394Z,21.00
2018-09-18T21:48:32.813Z,21.00
2018-09-18T21:51:03.545Z,21.00
2018-09-18T21:53:33.952Z,20.90
2018-09-18T21:56:04.363Z,20.90
2018-09-18T21:58:34.745Z,20.80
2018-09-18T22:01:06.255Z,20.70
2018-09-18T22:03:36.801Z,20.70
2018-09-18T22:06:07.211Z,20.60
2018-09-18T22:08:37.594Z,20.60
2018-09-18T22:11:08.026Z,20.50
2018-09-18T22:13:38.404Z,20.50
2018-09-18T22:16:09.178Z,20.40
2018-09-18T22:18:39.614Z,20.40
2018-09-18T22:21:10.033Z,20.30
2018-09-18T22:23:40.416Z,20.20
2018-09-18T22:26:10.832Z,20.20
2018-09-18T22:28:41.199Z,20.20
2018-09-18T22:31:11.588Z,20.10
2018-09-18T22:33:41.988Z,20.10
2018-09-18T22:36:12.662Z,20.10
2018-09-18T22:38:43.357Z,20.00
2018-09-18T22:41:13.725Z,19.90
2018-09-18T22:43:44.143Z,19.90
2018-09-18T22:46:14.845Z,19.90
2018-09-18T22:48:45.275Z,19.80
2018-09-18T22:51:15.990Z,19.70
2018-09-18T22:53:46.833Z,19.70
2018-09-18T22:56:17.246Z,19.70
2018-09-18T22:58:47.729Z,19.60
2018-09-18T23:01:18.131Z,19.60
2018-09-18T23:03:48.506Z,19.50
2018-09-18T23:06:19.183Z,19.50
2018-09-18T23:08:49.842Z,19.50
2018-09-18T23:11:20.867Z,19.50
2018-09-18T23:13:51.283Z,19.50
2018-09-18T23:16:21.949Z,19.40
2018-09-18T23:18:52.813Z,19.40
2018-09-18T23:21:23.631Z,19.40
2018-09-18T23:23:54.338Z,19.40
2018-09-18T23:26:24.997Z,19.40
2018-09-18T23:28:55.397Z,19.30
2018-09-18T23:31:26.262Z,19.30
2018-09-18T23:33:56.961Z,19.30
2018-09-18T23:36:27.620Z,19.30
2018-09-18T23:38:58.087Z,19.30
2018-09-18T23:41:28.963Z,19.30
2018-09-18T23:43:59.812Z,19.30
2018-09-18T23:46:30.532Z,19.40
2018-09-18T23:49:00.958Z,19.30
2018-09-18T23:51:31.378Z,19.30
2018-09-18T23:54:01.772Z,19.30
2018-09-18T23:56:32.456Z,19.30
2018-09-18T23:59:03.154Z,19.20
